sensor_id;sensor_type;location;lat;lon;timestamp;P1;durP1;ratioP1;P2;durP2;ratioP2
75152;SDS011;63734;45.218;36.708;2023-01-06T00:02:07;19.15;;;7.82;;
75152;SDS011;63734;45.218;36.708;2023-01-06T00:04:33;19.23;;;9.27;;
75152;SDS011;63734;45.218;36.708;2023-01-06T00:06:59;17.15;;;7.25;;
75152;SDS011;63734;45.218;36.708;2023-01-06T00:09:25;12.77;;;7.30;;
75152;SDS011;63734;45.218;36.708;2023-01-06T00:11:51;16.50;;;7.32;;
75152;SDS011;63734;45.218;36.708;2023-01-06T00:14:17;26.77;;;9.85;;
75152;SDS011;63734;45.218;36.708;2023-01-06T00:16:43;25.90;;;10.52;;
75152;SDS011;63734;45.218;36.708;2023-01-06T00:19:09;17.23;;;8.40;;
75152;SDS011;63734;45.218;36.708;2023-01-06T00:21:35;19.33;;;8.90;;
75152;SDS011;63734;45.218;36.708;2023-01-06T00:24:01;29.38;;;8.82;;
75152;SDS011;63734;45.218;36.708;2023-01-06T00:26:27;25.92;;;10.73;;
75152;SDS011;63734;45.218;36.708;2023-01-06T00:28:54;24.77;;;11.10;;
75152;SDS011;63734;45.218;36.708;2023-01-06T00:31:20;18.60;;;8.50;;
75152;SDS011;63734;45.218;36.708;2023-01-06T00:33:46;25.20;;;11.32;;
75152;SDS011;63734;45.218;36.708;2023-01-06T00:36:13;20.75;;;9.25;;
75152;SDS011;63734;45.218;36.708;2023-01-06T00:38:40;20.15;;;8.10;;
75152;SDS011;63734;45.218;36.708;2023-01-06T00:41:08;26.75;;;11.07;;
75152;SDS011;63734;45.218;36.708;2023-01-06T00:43:54;19.30;;;9.20;;
75152;SDS011;63734;45.218;36.708;2023-01-06T00:46:22;32.58;;;9.68;;
75152;SDS011;63734;45.218;36.708;2023-01-06T00:48:51;23.30;;;9.77;;
75152;SDS011;63734;45.218;36.708;2023-01-06T00:51:17;19.73;;;8.30;;
75152;SDS011;63734;45.218;36.708;2023-01-06T00:53:42;30.42;;;11.25;;
75152;SDS011;63734;45.218;36.708;2023-01-06T00:56:08;23.58;;;9.38;;
75152;SDS011;63734;45.218;36.708;2023-01-06T00:58:34;13.25;;;6.90;;
75152;SDS011;63734;45.218;36.708;2023-01-06T01:01:05;19.77;;;7.90;;
75152;SDS011;63734;45.218;36.708;2023-01-06T01:03:33;19.50;;;9.18;;
75152;SDS011;63734;45.218;36.708;2023-01-06T01:06:01;22.55;;;8.95;;
75152;SDS011;63734;45.218;36.708;2023-01-06T01:08:28;18.02;;;8.20;;
75152;SDS011;63734;45.218;36.708;2023-01-06T01:10:55;10.93;;;5.93;;
75152;SDS011;63734;45.218;36.708;2023-01-06T01:13:28;21.77;;;7.82;;
75152;SDS011;63734;45.218;36.708;2023-01-06T01:15:53;25.30;;;10.15;;
75152;SDS011;63734;45.218;36.708;2023-01-06T01:18:19;22.42;;;8.98;;
75152;SDS011;63734;45.218;36.708;2023-01-06T01:20:45;23.58;;;9.50;;
75152;SDS011;63734;45.218;36.708;2023-01-06T01:23:12;22.55;;;8.15;;
75152;SDS011;63734;45.218;36.708;2023-01-06T01:25:39;23.90;;;11.57;;
75152;SDS011;63734;45.218;36.708;2023-01-06T01:28:06;15.45;;;7.97;;
75152;SDS011;63734;45.218;36.708;2023-01-06T01:30:32;19.15;;;8.73;;
75152;SDS011;63734;45.218;36.708;2023-01-06T01:32:58;20.58;;;8.68;;
75152;SDS011;63734;45.218;36.708;2023-01-06T01:35:24;19.30;;;8.15;;
75152;SDS011;63734;45.218;36.708;2023-01-06T01:37:50;13.43;;;6.30;;
75152;SDS011;63734;45.218;36.708;2023-01-06T01:40:15;11.82;;;6.55;;
75152;SDS011;63734;45.218;36.708;2023-01-06T01:42:41;11.65;;;6.60;;
75152;SDS011;63734;45.218;36.708;2023-01-06T01:48:00;15.27;;;6.65;;
75152;SDS011;63734;45.218;36.708;2023-01-06T01:50:31;12.60;;;6.22;;
75152;SDS011;63734;45.218;36.708;2023-01-06T01:53:18;15.40;;;6.75;;
75152;SDS011;63734;45.218;36.708;2023-01-06T01:55:49;12.13;;;5.88;;
75152;SDS011;63734;45.218;36.708;2023-01-06T01:58:27;9.70;;;4.88;;
75152;SDS011;63734;45.218;36.708;2023-01-06T02:00:59;10.80;;;6.10;;
75152;SDS011;63734;45.218;36.708;2023-01-06T02:03:25;12.88;;;6.38;;
75152;SDS011;63734;45.218;36.708;2023-01-06T02:05:53;15.02;;;8.20;;
75152;SDS011;63734;45.218;36.708;2023-01-06T02:08:27;14.18;;;6.25;;
75152;SDS011;63734;45.218;36.708;2023-01-06T02:11:01;14.27;;;6.25;;
75152;SDS011;63734;45.218;36.708;2023-01-06T02:13:28;15.05;;;6.68;;
75152;SDS011;63734;45.218;36.708;2023-01-06T02:15:58;15.15;;;5.95;;
75152;SDS011;63734;45.218;36.708;2023-01-06T02:21:30;16.15;;;6.97;;
75152;SDS011;63734;45.218;36.708;2023-01-06T02:29:55;19.67;;;6.53;;
75152;SDS011;63734;45.218;36.708;2023-01-06T02:33:04;22.08;;;8.80;;
75152;SDS011;63734;45.218;36.708;2023-01-06T02:35:37;13.32;;;6.82;;
75152;SDS011;63734;45.218;36.708;2023-01-06T02:43:45;12.10;;;5.63;;
75152;SDS011;63734;45.218;36.708;2023-01-06T02:54:48;14.05;;;6.57;;
75152;SDS011;63734;45.218;36.708;2023-01-06T02:57:36;14.52;;;7.70;;
75152;SDS011;63734;45.218;36.708;2023-01-06T03:02:47;13.43;;;5.72;;
75152;SDS011;63734;45.218;36.708;2023-01-06T03:05:19;16.75;;;7.05;;
75152;SDS011;63734;45.218;36.708;2023-01-06T03:07:47;14.93;;;7.00;;
75152;SDS011;63734;45.218;36.708;2023-01-06T03:10:15;14.15;;;7.18;;
75152;SDS011;63734;45.218;36.708;2023-01-06T03:12:50;21.80;;;7.78;;
75152;SDS011;63734;45.218;36.708;2023-01-06T03:15:22;16.95;;;7.13;;
75152;SDS011;63734;45.218;36.708;2023-01-06T03:17:49;19.88;;;8.73;;
75152;SDS011;63734;45.218;36.708;2023-01-06T03:20:15;18.10;;;8.52;;
75152;SDS011;63734;45.218;36.708;2023-01-06T03:22:41;18.42;;;9.23;;
75152;SDS011;63734;45.218;36.708;2023-01-06T03:25:08;17.95;;;7.80;;
75152;SDS011;63734;45.218;36.708;2023-01-06T03:27:37;22.58;;;8.18;;
75152;SDS011;63734;45.218;36.708;2023-01-06T03:30:04;15.27;;;7.70;;
75152;SDS011;63734;45.218;36.708;2023-01-06T03:32:42;12.60;;;6.70;;
75152;SDS011;63734;45.218;36.708;2023-01-06T03:43:41;8.95;;;4.55;;
75152;SDS011;63734;45.218;36.708;2023-01-06T03:46:37;15.18;;;6.85;;
75152;SDS011;63734;45.218;36.708;2023-01-06T03:49:07;12.90;;;6.25;;
75152;SDS011;63734;45.218;36.708;2023-01-06T03:51:53;12.30;;;5.15;;
75152;SDS011;63734;45.218;36.708;2023-01-06T03:57:12;17.67;;;6.50;;
75152;SDS011;63734;45.218;36.708;2023-01-06T03:59:53;13.35;;;6.88;;
75152;SDS011;63734;45.218;36.708;2023-01-06T04:02:22;14.15;;;5.60;;
75152;SDS011;63734;45.218;36.708;2023-01-06T04:07:46;15.85;;;6.80;;
75152;SDS011;63734;45.218;36.708;2023-01-06T04:10:14;14.05;;;6.63;;
75152;SDS011;63734;45.218;36.708;2023-01-06T04:12:43;15.35;;;6.38;;
75152;SDS011;63734;45.218;36.708;2023-01-06T04:15:14;14.25;;;7.07;;
75152;SDS011;63734;45.218;36.708;2023-01-06T04:17:46;16.83;;;7.50;;
75152;SDS011;63734;45.218;36.708;2023-01-06T04:20:16;15.73;;;6.25;;
75152;SDS011;63734;45.218;36.708;2023-01-06T04:22:46;16.73;;;7.63;;
75152;SDS011;63734;45.218;36.708;2023-01-06T04:25:12;17.30;;;7.35;;
75152;SDS011;63734;45.218;36.708;2023-01-06T04:27:39;15.52;;;6.95;;
75152;SDS011;63734;45.218;36.708;2023-01-06T04:30:06;15.10;;;6.28;;
75152;SDS011;63734;45.218;36.708;2023-01-06T04:32:32;14.40;;;6.05;;
75152;SDS011;63734;45.218;36.708;2023-01-06T04:35:02;13.68;;;6.07;;
75152;SDS011;63734;45.218;36.708;2023-01-06T04:37:28;14.10;;;5.93;;
75152;SDS011;63734;45.218;36.708;2023-01-06T04:39:54;17.30;;;6.80;;
75152;SDS011;63734;45.218;36.708;2023-01-06T04:42:20;14.25;;;7.13;;
75152;SDS011;63734;45.218;36.708;2023-01-06T04:44:46;16.67;;;6.45;;
75152;SDS011;63734;45.218;36.708;2023-01-06T04:47:12;13.77;;;6.68;;
75152;SDS011;63734;45.218;36.708;2023-01-06T04:49:38;11.18;;;5.50;;
75152;SDS011;63734;45.218;36.708;2023-01-06T04:52:04;12.60;;;4.90;;
75152;SDS011;63734;45.218;36.708;2023-01-06T04:54:33;13.63;;;6.20;;
75152;SDS011;63734;45.218;36.708;2023-01-06T04:57:00;12.38;;;5.00;;
75152;SDS011;63734;45.218;36.708;2023-01-06T04:59:26;14.57;;;6.32;;
75152;SDS011;63734;45.218;36.708;2023-01-06T05:01:52;17.90;;;6.68;;
75152;SDS011;63734;45.218;36.708;2023-01-06T05:04:18;10.45;;;6.07;;
75152;SDS011;63734;45.218;36.708;2023-01-06T05:06:44;14.55;;;5.45;;
75152;SDS011;63734;45.218;36.708;2023-01-06T05:09:10;11.45;;;5.10;;
75152;SDS011;63734;45.218;36.708;2023-01-06T05:11:36;11.57;;;5.55;;
75152;SDS011;63734;45.218;36.708;2023-01-06T05:14:02;7.72;;;4.57;;
75152;SDS011;63734;45.218;36.708;2023-01-06T05:16:30;11.35;;;5.40;;
75152;SDS011;63734;45.218;36.708;2023-01-06T05:18:58;12.18;;;5.95;;
75152;SDS011;63734;45.218;36.708;2023-01-06T05:21:25;9.95;;;5.45;;
75152;SDS011;63734;45.218;36.708;2023-01-06T05:23:53;12.93;;;6.13;;
75152;SDS011;63734;45.218;36.708;2023-01-06T05:26:24;9.60;;;4.55;;
75152;SDS011;63734;45.218;36.708;2023-01-06T05:28:51;16.65;;;6.68;;
75152;SDS011;63734;45.218;36.708;2023-01-06T05:31:17;14.25;;;6.07;;
75152;SDS011;63734;45.218;36.708;2023-01-06T05:33:44;14.50;;;5.75;;
75152;SDS011;63734;45.218;36.708;2023-01-06T05:36:11;12.25;;;5.60;;
75152;SDS011;63734;45.218;36.708;2023-01-06T05:38:39;11.52;;;4.72;;
75152;SDS011;63734;45.218;36.708;2023-01-06T05:41:06;11.13;;;5.25;;
75152;SDS011;63734;45.218;36.708;2023-01-06T05:43:33;11.07;;;5.70;;
75152;SDS011;63734;45.218;36.708;2023-01-06T05:46:04;11.57;;;4.78;;
75152;SDS011;63734;45.218;36.708;2023-01-06T05:48:32;7.40;;;4.20;;
75152;SDS011;63734;45.218;36.708;2023-01-06T05:51:05;9.98;;;4.70;;
75152;SDS011;63734;45.218;36.708;2023-01-06T05:53:33;8.02;;;4.47;;
75152;SDS011;63734;45.218;36.708;2023-01-06T05:56:01;7.25;;;3.95;;
75152;SDS011;63734;45.218;36.708;2023-01-06T05:58:31;5.03;;;2.72;;
75152;SDS011;63734;45.218;36.708;2023-01-06T06:00:58;5.22;;;2.65;;
75152;SDS011;63734;45.218;36.708;2023-01-06T06:03:25;5.65;;;3.10;;
75152;SDS011;63734;45.218;36.708;2023-01-06T06:05:51;4.18;;;2.25;;
75152;SDS011;63734;45.218;36.708;2023-01-06T06:08:17;4.25;;;2.75;;
75152;SDS011;63734;45.218;36.708;2023-01-06T06:10:44;5.35;;;2.88;;
75152;SDS011;63734;45.218;36.708;2023-01-06T06:13:10;7.53;;;3.35;;
75152;SDS011;63734;45.218;36.708;2023-01-06T06:15:36;9.32;;;4.25;;
75152;SDS011;63734;45.218;36.708;2023-01-06T06:18:02;6.97;;;4.32;;
75152;SDS011;63734;45.218;36.708;2023-01-06T06:20:28;12.00;;;5.28;;
75152;SDS011;63734;45.218;36.708;2023-01-06T06:22:54;8.90;;;4.95;;
75152;SDS011;63734;45.218;36.708;2023-01-06T06:25:20;13.88;;;6.47;;
75152;SDS011;63734;45.218;36.708;2023-01-06T06:27:47;10.77;;;5.70;;
75152;SDS011;63734;45.218;36.708;2023-01-06T06:30:13;12.45;;;6.35;;
75152;SDS011;63734;45.218;36.708;2023-01-06T06:32:41;14.90;;;6.43;;
75152;SDS011;63734;45.218;36.708;2023-01-06T06:35:07;17.60;;;6.97;;
75152;SDS011;63734;45.218;36.708;2023-01-06T06:37:33;19.48;;;7.03;;
75152;SDS011;63734;45.218;36.708;2023-01-06T06:39:59;14.90;;;7.22;;
75152;SDS011;63734;45.218;36.708;2023-01-06T06:42:25;14.32;;;6.70;;
75152;SDS011;63734;45.218;36.708;2023-01-06T06:44:51;12.18;;;6.65;;
75152;SDS011;63734;45.218;36.708;2023-01-06T06:47:17;13.70;;;6.35;;
75152;SDS011;63734;45.218;36.708;2023-01-06T06:49:43;9.95;;;5.38;;
75152;SDS011;63734;45.218;36.708;2023-01-06T06:52:09;16.88;;;7.47;;
75152;SDS011;63734;45.218;36.708;2023-01-06T06:54:35;12.23;;;6.35;;
75152;SDS011;63734;45.218;36.708;2023-01-06T06:57:01;14.82;;;7.70;;
75152;SDS011;63734;45.218;36.708;2023-01-06T06:59:27;14.27;;;7.03;;
75152;SDS011;63734;45.218;36.708;2023-01-06T07:01:53;15.57;;;7.05;;
75152;SDS011;63734;45.218;36.708;2023-01-06T07:04:19;11.52;;;5.50;;
75152;SDS011;63734;45.218;36.708;2023-01-06T07:06:45;10.65;;;5.65;;
75152;SDS011;63734;45.218;36.708;2023-01-06T07:09:12;13.23;;;5.80;;
75152;SDS011;63734;45.218;36.708;2023-01-06T07:11:37;13.38;;;7.32;;
75152;SDS011;63734;45.218;36.708;2023-01-06T07:14:04;11.80;;;5.63;;
75152;SDS011;63734;45.218;36.708;2023-01-06T07:16:30;13.27;;;6.35;;
75152;SDS011;63734;45.218;36.708;2023-01-06T07:18:56;12.10;;;7.10;;
75152;SDS011;63734;45.218;36.708;2023-01-06T07:21:22;13.88;;;6.65;;
75152;SDS011;63734;45.218;36.708;2023-01-06T07:23:47;8.35;;;5.05;;
75152;SDS011;63734;45.218;36.708;2023-01-06T07:26:13;12.20;;;6.40;;
75152;SDS011;63734;45.218;36.708;2023-01-06T07:28:40;12.30;;;5.70;;
75152;SDS011;63734;45.218;36.708;2023-01-06T07:31:06;15.68;;;6.95;;
75152;SDS011;63734;45.218;36.708;2023-01-06T07:33:32;12.48;;;6.63;;
75152;SDS011;63734;45.218;36.708;2023-01-06T07:35:58;11.07;;;5.97;;
75152;SDS011;63734;45.218;36.708;2023-01-06T07:38:24;13.73;;;7.07;;
75152;SDS011;63734;45.218;36.708;2023-01-06T07:40:50;11.05;;;5.97;;
75152;SDS011;63734;45.218;36.708;2023-01-06T07:43:16;13.65;;;7.47;;
75152;SDS011;63734;45.218;36.708;2023-01-06T07:45:44;13.50;;;6.85;;
75152;SDS011;63734;45.218;36.708;2023-01-06T07:48:11;11.80;;;6.30;;
75152;SDS011;63734;45.218;36.708;2023-01-06T07:50:37;13.13;;;7.45;;
75152;SDS011;63734;45.218;36.708;2023-01-06T07:53:03;14.82;;;6.97;;
75152;SDS011;63734;45.218;36.708;2023-01-06T07:55:29;16.50;;;7.22;;
75152;SDS011;63734;45.218;36.708;2023-01-06T07:57:56;11.90;;;6.82;;
75152;SDS011;63734;45.218;36.708;2023-01-06T08:00:23;14.20;;;6.68;;
75152;SDS011;63734;45.218;36.708;2023-01-06T08:02:49;8.75;;;5.55;;
75152;SDS011;63734;45.218;36.708;2023-01-06T08:05:15;12.75;;;5.75;;
75152;SDS011;63734;45.218;36.708;2023-01-06T08:07:41;11.27;;;5.35;;
75152;SDS011;63734;45.218;36.708;2023-01-06T08:10:07;9.52;;;5.70;;
75152;SDS011;63734;45.218;36.708;2023-01-06T08:12:34;12.30;;;6.43;;
75152;SDS011;63734;45.218;36.708;2023-01-06T08:15:02;12.38;;;6.57;;
75152;SDS011;63734;45.218;36.708;2023-01-06T08:17:29;14.90;;;6.80;;
75152;SDS011;63734;45.218;36.708;2023-01-06T08:19:55;10.50;;;5.68;;
75152;SDS011;63734;45.218;36.708;2023-01-06T08:22:21;11.25;;;5.57;;
75152;SDS011;63734;45.218;36.708;2023-01-06T08:24:48;9.70;;;5.57;;
75152;SDS011;63734;45.218;36.708;2023-01-06T08:27:14;12.82;;;5.72;;
75152;SDS011;63734;45.218;36.708;2023-01-06T08:29:40;6.68;;;4.10;;
75152;SDS011;63734;45.218;36.708;2023-01-06T08:32:06;9.93;;;5.25;;
75152;SDS011;63734;45.218;36.708;2023-01-06T08:34:32;7.13;;;4.20;;
75152;SDS011;63734;45.218;36.708;2023-01-06T08:36:58;10.98;;;5.97;;
75152;SDS011;63734;45.218;36.708;2023-01-06T08:39:24;6.65;;;3.88;;
75152;SDS011;63734;45.218;36.708;2023-01-06T08:41:50;6.45;;;4.30;;
75152;SDS011;63734;45.218;36.708;2023-01-06T08:44:18;11.45;;;5.00;;
75152;SDS011;63734;45.218;36.708;2023-01-06T08:46:45;11.40;;;4.97;;
75152;SDS011;63734;45.218;36.708;2023-01-06T08:49:10;11.43;;;5.68;;
75152;SDS011;63734;45.218;36.708;2023-01-06T08:51:36;9.50;;;5.00;;
75152;SDS011;63734;45.218;36.708;2023-01-06T08:54:02;9.20;;;5.38;;
75152;SDS011;63734;45.218;36.708;2023-01-06T08:56:29;11.25;;;6.07;;
75152;SDS011;63734;45.218;36.708;2023-01-06T08:58:57;8.88;;;4.80;;
75152;SDS011;63734;45.218;36.708;2023-01-06T09:01:26;9.40;;;4.57;;
75152;SDS011;63734;45.218;36.708;2023-01-06T09:03:54;5.85;;;3.95;;
75152;SDS011;63734;45.218;36.708;2023-01-06T09:06:20;6.43;;;4.05;;
75152;SDS011;63734;45.218;36.708;2023-01-06T09:08:46;10.02;;;5.00;;
75152;SDS011;63734;45.218;36.708;2023-01-06T09:11:13;8.27;;;4.90;;
75152;SDS011;63734;45.218;36.708;2023-01-06T09:13:41;5.70;;;3.40;;
75152;SDS011;63734;45.218;36.708;2023-01-06T09:16:08;7.30;;;3.60;;
75152;SDS011;63734;45.218;36.708;2023-01-06T09:18:36;6.78;;;3.47;;
75152;SDS011;63734;45.218;36.708;2023-01-06T09:21:03;8.60;;;3.35;;
75152;SDS011;63734;45.218;36.708;2023-01-06T09:23:30;6.88;;;3.58;;
75152;SDS011;63734;45.218;36.708;2023-01-06T09:25:57;4.22;;;2.88;;
75152;SDS011;63734;45.218;36.708;2023-01-06T09:28:23;6.03;;;3.83;;
75152;SDS011;63734;45.218;36.708;2023-01-06T09:30:50;8.45;;;3.33;;
75152;SDS011;63734;45.218;36.708;2023-01-06T09:33:16;6.75;;;3.88;;
75152;SDS011;63734;45.218;36.708;2023-01-06T09:35:43;11.35;;;5.25;;
75152;SDS011;63734;45.218;36.708;2023-01-06T09:38:10;11.82;;;5.63;;
75152;SDS011;63734;45.218;36.708;2023-01-06T09:40:43;10.55;;;4.82;;
75152;SDS011;63734;45.218;36.708;2023-01-06T09:43:37;8.95;;;4.60;;
75152;SDS011;63734;45.218;36.708;2023-01-06T09:46:27;15.30;;;6.28;;
75152;SDS011;63734;45.218;36.708;2023-01-06T09:51:40;9.88;;;5.03;;
75152;SDS011;63734;45.218;36.708;2023-01-06T09:56:40;7.45;;;3.95;;
75152;SDS011;63734;45.218;36.708;2023-01-06T09:59:13;4.85;;;3.28;;
75152;SDS011;63734;45.218;36.708;2023-01-06T10:01:47;5.47;;;3.42;;
75152;SDS011;63734;45.218;36.708;2023-01-06T10:04:16;4.00;;;3.03;;
75152;SDS011;63734;45.218;36.708;2023-01-06T10:06:50;6.28;;;3.20;;
75152;SDS011;63734;45.218;36.708;2023-01-06T10:26:02;6.07;;;3.13;;
75152;SDS011;63734;45.218;36.708;2023-01-06T10:28:27;4.05;;;2.30;;
75152;SDS011;63734;45.218;36.708;2023-01-06T10:31:02;5.00;;;2.42;;
75152;SDS011;63734;45.218;36.708;2023-01-06T10:33:34;4.43;;;2.55;;
75152;SDS011;63734;45.218;36.708;2023-01-06T10:36:12;2.97;;;1.85;;
75152;SDS011;63734;45.218;36.708;2023-01-06T10:38:44;4.78;;;2.80;;
75152;SDS011;63734;45.218;36.708;2023-01-06T10:44:21;4.68;;;2.38;;
75152;SDS011;63734;45.218;36.708;2023-01-06T10:46:47;5.15;;;2.75;;
75152;SDS011;63734;45.218;36.708;2023-01-06T10:49:15;2.97;;;1.63;;
75152;SDS011;63734;45.218;36.708;2023-01-06T10:51:43;4.55;;;2.15;;
75152;SDS011;63734;45.218;36.708;2023-01-06T10:54:17;4.68;;;2.08;;
75152;SDS011;63734;45.218;36.708;2023-01-06T10:56:55;3.58;;;2.20;;
75152;SDS011;63734;45.218;36.708;2023-01-06T10:59:25;4.47;;;2.22;;
75152;SDS011;63734;45.218;36.708;2023-01-06T11:01:54;2.47;;;1.83;;
75152;SDS011;63734;45.218;36.708;2023-01-06T11:04:22;2.38;;;1.45;;
75152;SDS011;63734;45.218;36.708;2023-01-06T11:06:54;4.40;;;1.92;;
75152;SDS011;63734;45.218;36.708;2023-01-06T11:09:28;2.47;;;1.63;;
75152;SDS011;63734;45.218;36.708;2023-01-06T11:12:02;2.05;;;1.45;;
75152;SDS011;63734;45.218;36.708;2023-01-06T11:14:54;3.47;;;1.90;;
75152;SDS011;63734;45.218;36.708;2023-01-06T11:17:23;2.65;;;1.90;;
75152;SDS011;63734;45.218;36.708;2023-01-06T11:20:07;3.75;;;1.77;;
75152;SDS011;63734;45.218;36.708;2023-01-06T11:22:42;4.30;;;1.92;;
75152;SDS011;63734;45.218;36.708;2023-01-06T11:25:30;4.28;;;2.08;;
75152;SDS011;63734;45.218;36.708;2023-01-06T11:28:11;2.45;;;1.73;;
75152;SDS011;63734;45.218;36.708;2023-01-06T11:30:38;2.75;;;1.48;;
75152;SDS011;63734;45.218;36.708;2023-01-06T11:33:22;3.50;;;2.03;;
75152;SDS011;63734;45.218;36.708;2023-01-06T11:35:50;2.90;;;1.60;;
75152;SDS011;63734;45.218;36.708;2023-01-06T11:38:18;3.13;;;1.58;;
75152;SDS011;63734;45.218;36.708;2023-01-06T11:40:46;3.50;;;1.65;;
75152;SDS011;63734;45.218;36.708;2023-01-06T11:43:23;2.75;;;1.77;;
75152;SDS011;63734;45.218;36.708;2023-01-06T11:45:55;1.90;;;1.55;;
75152;SDS011;63734;45.218;36.708;2023-01-06T11:48:46;4.43;;;1.30;;
75152;SDS011;63734;45.218;36.708;2023-01-06T11:51:29;4.07;;;2.03;;
75152;SDS011;63734;45.218;36.708;2023-01-06T11:53:57;2.45;;;1.80;;
75152;SDS011;63734;45.218;36.708;2023-01-06T11:56:25;4.22;;;1.98;;
75152;SDS011;63734;45.218;36.708;2023-01-06T12:01:32;4.20;;;2.17;;
75152;SDS011;63734;45.218;36.708;2023-01-06T12:04:11;6.22;;;2.25;;
75152;SDS011;63734;45.218;36.708;2023-01-06T12:06:43;6.00;;;1.88;;
75152;SDS011;63734;45.218;36.708;2023-01-06T12:11:49;3.50;;;1.90;;
75152;SDS011;63734;45.218;36.708;2023-01-06T12:14:37;2.10;;;1.20;;
75152;SDS011;63734;45.218;36.708;2023-01-06T12:17:57;2.03;;;1.80;;
75152;SDS011;63734;45.218;36.708;2023-01-06T12:20:32;2.33;;;1.70;;
75152;SDS011;63734;45.218;36.708;2023-01-06T12:23:04;1.42;;;1.20;;
75152;SDS011;63734;45.218;36.708;2023-01-06T12:25:40;3.50;;;1.90;;
75152;SDS011;63734;45.218;36.708;2023-01-06T12:30:57;3.58;;;1.80;;
75152;SDS011;63734;45.218;36.708;2023-01-06T12:33:30;2.00;;;1.80;;
75152;SDS011;63734;45.218;36.708;2023-01-06T12:36:26;3.25;;;1.98;;
75152;SDS011;63734;45.218;36.708;2023-01-06T12:38:55;3.63;;;1.95;;
75152;SDS011;63734;45.218;36.708;2023-01-06T12:41:35;3.17;;;1.73;;
75152;SDS011;63734;45.218;36.708;2023-01-06T12:46:54;3.03;;;2.33;;
75152;SDS011;63734;45.218;36.708;2023-01-06T12:52:27;2.65;;;1.95;;
75152;SDS011;63734;45.218;36.708;2023-01-06T12:55:01;3.72;;;2.42;;
75152;SDS011;63734;45.218;36.708;2023-01-06T13:00:14;3.47;;;2.33;;
75152;SDS011;63734;45.218;36.708;2023-01-06T13:09:32;2.30;;;1.70;;
75152;SDS011;63734;45.218;36.708;2023-01-06T13:19:52;5.03;;;2.30;;
75152;SDS011;63734;45.218;36.708;2023-01-06T13:25:43;4.95;;;2.50;;
75152;SDS011;63734;45.218;36.708;2023-01-06T13:28:55;4.20;;;2.35;;
75152;SDS011;63734;45.218;36.708;2023-01-06T13:34:21;3.20;;;2.03;;
75152;SDS011;63734;45.218;36.708;2023-01-06T13:39:53;4.38;;;1.73;;
75152;SDS011;63734;45.218;36.708;2023-01-06T13:45:19;3.08;;;1.83;;
75152;SDS011;63734;45.218;36.708;2023-01-06T13:47:49;3.20;;;1.85;;
75152;SDS011;63734;45.218;36.708;2023-01-06T13:50:16;3.33;;;1.92;;
75152;SDS011;63734;45.218;36.708;2023-01-06T13:52:45;2.05;;;1.55;;
75152;SDS011;63734;45.218;36.708;2023-01-06T13:57:50;3.60;;;2.03;;
75152;SDS011;63734;45.218;36.708;2023-01-06T14:00:21;1.70;;;1.60;;
75152;SDS011;63734;45.218;36.708;2023-01-06T14:07:56;3.20;;;2.35;;
75152;SDS011;63734;45.218;36.708;2023-01-06T14:10:38;3.80;;;2.20;;
75152;SDS011;63734;45.218;36.708;2023-01-06T14:13:18;4.90;;;2.40;;
75152;SDS011;63734;45.218;36.708;2023-01-06T14:16:03;6.10;;;2.70;;
75152;SDS011;63734;45.218;36.708;2023-01-06T14:18:34;2.72;;;1.75;;
75152;SDS011;63734;45.218;36.708;2023-01-06T14:23:59;2.53;;;1.98;;
75152;SDS011;63734;45.218;36.708;2023-01-06T14:26:45;2.05;;;1.35;;
75152;SDS011;63734;45.218;36.708;2023-01-06T14:35:03;3.28;;;2.42;;
75152;SDS011;63734;45.218;36.708;2023-01-06T14:40:32;2.45;;;1.65;;
75152;SDS011;63734;45.218;36.708;2023-01-06T14:43:04;3.58;;;1.85;;
75152;SDS011;63734;45.218;36.708;2023-01-06T14:45:51;2.83;;;1.92;;
75152;SDS011;63734;45.218;36.708;2023-01-06T14:48:19;3.38;;;1.33;;
75152;SDS011;63734;45.218;36.708;2023-01-06T14:50:49;2.00;;;1.63;;
75152;SDS011;63734;45.218;36.708;2023-01-06T14:53:28;2.95;;;2.13;;
75152;SDS011;63734;45.218;36.708;2023-01-06T14:56:06;2.78;;;1.77;;
75152;SDS011;63734;45.218;36.708;2023-01-06T14:58:43;3.90;;;2.28;;
75152;SDS011;63734;45.218;36.708;2023-01-06T15:01:18;2.33;;;1.55;;
75152;SDS011;63734;45.218;36.708;2023-01-06T15:03:56;2.53;;;1.90;;
75152;SDS011;63734;45.218;36.708;2023-01-06T15:06:26;1.55;;;1.42;;
75152;SDS011;63734;45.218;36.708;2023-01-06T15:08:54;3.70;;;1.65;;
75152;SDS011;63734;45.218;36.708;2023-01-06T15:11:44;2.53;;;1.80;;
75152;SDS011;63734;45.218;36.708;2023-01-06T15:14:27;3.63;;;1.73;;
75152;SDS011;63734;45.218;36.708;2023-01-06T15:16:58;1.58;;;1.40;;
75152;SDS011;63734;45.218;36.708;2023-01-06T15:19:27;2.33;;;1.45;;
75152;SDS011;63734;45.218;36.708;2023-01-06T15:21:55;3.17;;;1.65;;
75152;SDS011;63734;45.218;36.708;2023-01-06T15:24:26;2.05;;;1.52;;
75152;SDS011;63734;45.218;36.708;2023-01-06T15:27:01;4.60;;;2.10;;
75152;SDS011;63734;45.218;36.708;2023-01-06T15:29:32;4.72;;;1.58;;
75152;SDS011;63734;45.218;36.708;2023-01-06T15:31:59;1.67;;;1.42;;
75152;SDS011;63734;45.218;36.708;2023-01-06T15:34:33;5.22;;;1.52;;
75152;SDS011;63734;45.218;36.708;2023-01-06T15:37:03;2.20;;;1.80;;
75152;SDS011;63734;45.218;36.708;2023-01-06T15:39:32;4.43;;;1.92;;
75152;SDS011;63734;45.218;36.708;2023-01-06T15:41:59;3.63;;;1.63;;
75152;SDS011;63734;45.218;36.708;2023-01-06T15:49:49;2.25;;;1.58;;
75152;SDS011;63734;45.218;36.708;2023-01-06T15:52:25;2.58;;;2.20;;
75152;SDS011;63734;45.218;36.708;2023-01-06T15:55:06;3.35;;;1.77;;
75152;SDS011;63734;45.218;36.708;2023-01-06T15:57:48;1.70;;;1.05;;
75152;SDS011;63734;45.218;36.708;2023-01-06T16:00:22;1.70;;;1.30;;
75152;SDS011;63734;45.218;36.708;2023-01-06T16:02:51;1.60;;;1.50;;
75152;SDS011;63734;45.218;36.708;2023-01-06T16:05:31;3.22;;;2.05;;
75152;SDS011;63734;45.218;36.708;2023-01-06T16:08:04;2.55;;;2.10;;
75152;SDS011;63734;45.218;36.708;2023-01-06T16:18:40;5.43;;;4.07;;
75152;SDS011;63734;45.218;36.708;2023-01-06T16:21:26;3.80;;;2.15;;
75152;SDS011;63734;45.218;36.708;2023-01-06T16:23:58;2.78;;;1.75;;
75152;SDS011;63734;45.218;36.708;2023-01-06T16:26:27;3.10;;;2.08;;
75152;SDS011;63734;45.218;36.708;2023-01-06T16:28:59;4.15;;;2.03;;
75152;SDS011;63734;45.218;36.708;2023-01-06T16:31:34;3.83;;;1.73;;
75152;SDS011;63734;45.218;36.708;2023-01-06T16:34:23;2.03;;;1.40;;
75152;SDS011;63734;45.218;36.708;2023-01-06T16:36:57;1.85;;;1.27;;
75152;SDS011;63734;45.218;36.708;2023-01-06T16:39:24;1.55;;;1.20;;
75152;SDS011;63734;45.218;36.708;2023-01-06T16:44:27;1.95;;;1.13;;
75152;SDS011;63734;45.218;36.708;2023-01-06T16:46:57;1.42;;;1.17;;
75152;SDS011;63734;45.218;36.708;2023-01-06T16:49:24;1.50;;;1.35;;
75152;SDS011;63734;45.218;36.708;2023-01-06T16:51:50;1.83;;;1.42;;
75152;SDS011;63734;45.218;36.708;2023-01-06T16:54:17;1.88;;;1.33;;
75152;SDS011;63734;45.218;36.708;2023-01-06T16:56:43;3.47;;;1.45;;
75152;SDS011;63734;45.218;36.708;2023-01-06T16:59:12;1.15;;;1.05;;
75152;SDS011;63734;45.218;36.708;2023-01-06T17:01:41;1.65;;;1.10;;
75152;SDS011;63734;45.218;36.708;2023-01-06T17:04:09;3.38;;;1.20;;
75152;SDS011;63734;45.218;36.708;2023-01-06T17:06:41;2.45;;;1.17;;
75152;SDS011;63734;45.218;36.708;2023-01-06T17:09:18;3.33;;;1.17;;
75152;SDS011;63734;45.218;36.708;2023-01-06T17:11:46;2.38;;;1.20;;
75152;SDS011;63734;45.218;36.708;2023-01-06T17:14:16;1.33;;;1.20;;